sensor_id;sensor_type;location;lat;lon;timestamp;pressure;altitude;pressure_sealevel;temperature;humidity
68380;BME280;57711;53.196;19.638;2024-01-25T00:01:02;98918.63;;;5.34;76.48
68380;BME280;57711;53.196;19.638;2024-01-25T00:03:40;98924.83;;;5.33;76.38
68380;BME280;57711;53.196;19.638;2024-01-25T00:06:07;98923.35;;;5.31;76.45
68380;BME280;57711;53.196;19.638;2024-01-25T00:08:35;98927.15;;;5.28;76.39
68380;BME280;57711;53.196;19.638;2024-01-25T00:11:02;98929.73;;;5.28;76.49
68380;BME280;57711;53.196;19.638;2024-01-25T00:13:30;98932.17;;;5.27;76.41
68380;BME280;57711;53.196;19.638;2024-01-25T00:15:58;98933.63;;;5.24;76.39
68380;BME280;57711;53.196;19.638;2024-01-25T00:18:25;98933.83;;;5.24;76.51
68380;BME280;57711;53.196;19.638;2024-01-25T00:20:52;98935.98;;;5.22;76.41
68380;BME280;57711;53.196;19.638;2024-01-25T00:23:19;98937.66;;;5.21;76.51
68380;BME280;57711;53.196;19.638;2024-01-25T00:25:46;98933.98;;;5.20;76.38
68380;BME280;57711;53.196;19.638;2024-01-25T00:28:13;98939.09;;;5.19;76.52
68380;BME280;57711;53.196;19.638;2024-01-25T00:30:40;98938.05;;;5.19;76.42
68380;BME280;57711;53.196;19.638;2024-01-25T00:33:07;98944.98;;;5.19;76.53
68380;BME280;57711;53.196;19.638;2024-01-25T00:35:35;98945.89;;;5.20;76.36
68380;BME280;57711;53.196;19.638;2024-01-25T00:38:02;98948.66;;;5.20;76.51
68380;BME280;57711;53.196;19.638;2024-01-25T00:40:29;98945.24;;;5.21;76.44
68380;BME280;57711;53.196;19.638;2024-01-25T00:42:57;98947.69;;;5.21;76.42
68380;BME280;57711;53.196;19.638;2024-01-25T00:45:24;98947.45;;;5.22;76.46
68380;BME280;57711;53.196;19.638;2024-01-25T00:47:51;98949.17;;;5.23;76.44
68380;BME280;57711;53.196;19.638;2024-01-25T00:50:19;98949.45;;;5.24;76.38
68380;BME280;57711;53.196;19.638;2024-01-25T00:52:49;98954.45;;;5.26;76.44
68380;BME280;57711;53.196;19.638;2024-01-25T00:55:16;98953.67;;;5.27;76.43
68380;BME280;57711;53.196;19.638;2024-01-25T00:57:44;98953.00;;;5.28;76.39
68380;BME280;57711;53.196;19.638;2024-01-25T01:00:11;98953.04;;;5.30;76.40
68380;BME280;57711;53.196;19.638;2024-01-25T01:02:41;98950.33;;;5.30;76.42
68380;BME280;57711;53.196;19.638;2024-01-25T01:05:10;98951.90;;;5.30;76.38
68380;BME280;57711;53.196;19.638;2024-01-25T01:07:38;98951.96;;;5.30;76.36
68380;BME280;57711;53.196;19.638;2024-01-25T01:10:08;98949.98;;;5.30;76.45
68380;BME280;57711;53.196;19.638;2024-01-25T01:12:38;98947.69;;;5.29;76.33
68380;BME280;57711;53.196;19.638;2024-01-25T01:15:06;98947.20;;;5.31;76.38
68380;BME280;57711;53.196;19.638;2024-01-25T01:17:33;98945.70;;;5.32;76.29
68380;BME280;57711;53.196;19.638;2024-01-25T01:20:00;98949.23;;;5.32;76.36
68380;BME280;57711;53.196;19.638;2024-01-25T01:22:27;98948.68;;;5.33;76.38
68380;BME280;57711;53.196;19.638;2024-01-25T01:24:54;98951.80;;;5.34;76.23
68380;BME280;57711;53.196;19.638;2024-01-25T01:27:21;98949.56;;;5.35;76.35
68380;BME280;57711;53.196;19.638;2024-01-25T01:29:49;98957.41;;;5.35;76.41
68380;BME280;57711;53.196;19.638;2024-01-25T01:32:16;98952.71;;;5.36;76.36
68380;BME280;57711;53.196;19.638;2024-01-25T01:34:44;98950.98;;;5.35;76.30
68380;BME280;57711;53.196;19.638;2024-01-25T01:37:11;98950.98;;;5.35;76.31
68380;BME280;57711;53.196;19.638;2024-01-25T01:39:38;98956.72;;;5.35;76.33
68380;BME280;57711;53.196;19.638;2024-01-25T01:42:05;98959.70;;;5.36;76.39
68380;BME280;57711;53.196;19.638;2024-01-25T01:44:32;98955.61;;;5.37;76.33
68380;BME280;57711;53.196;19.638;2024-01-25T01:46:59;98958.23;;;5.38;76.19
68380;BME280;57711;53.196;19.638;2024-01-25T01:49:27;98961.10;;;5.38;76.29
68380;BME280;57711;53.196;19.638;2024-01-25T01:51:55;98963.87;;;5.39;76.28
68380;BME280;57711;53.196;19.638;2024-01-25T01:54:23;98963.42;;;5.38;76.12
68380;BME280;57711;53.196;19.638;2024-01-25T01:56:51;98967.20;;;5.38;76.23
68380;BME280;57711;53.196;19.638;2024-01-25T01:59:19;98967.86;;;5.39;76.30
68380;BME280;57711;53.196;19.638;2024-01-25T02:01:47;98969.05;;;5.39;76.29
68380;BME280;57711;53.196;19.638;2024-01-25T02:04:14;98970.36;;;5.39;76.13
68380;BME280;57711;53.196;19.638;2024-01-25T02:06:42;98974.66;;;5.39;76.23
68380;BME280;57711;53.196;19.638;2024-01-25T02:09:09;98973.45;;;5.38;76.15
68380;BME280;57711;53.196;19.638;2024-01-25T02:11:36;98972.64;;;5.37;76.19
68380;BME280;57711;53.196;19.638;2024-01-25T02:14:03;98970.92;;;5.39;76.13
68380;BME280;57711;53.196;19.638;2024-01-25T02:16:31;98975.77;;;5.38;76.03
68380;BME280;57711;53.196;19.638;2024-01-25T02:18:58;98976.83;;;5.39;76.13
68380;BME280;57711;53.196;19.638;2024-01-25T02:21:26;98981.82;;;5.37;76.11
68380;BME280;57711;53.196;19.638;2024-01-25T02:23:53;98981.89;;;5.38;76.11
68380;BME280;57711;53.196;19.638;2024-01-25T02:26:20;98985.05;;;5.39;76.02
68380;BME280;57711;53.196;19.638;2024-01-25T02:28:47;98979.98;;;5.39;76.00
68380;BME280;57711;53.196;19.638;2024-01-25T02:31:14;98980.77;;;5.39;76.00
68380;BME280;57711;53.196;19.638;2024-01-25T02:33:42;98980.88;;;5.37;75.85
68380;BME280;57711;53.196;19.638;2024-01-25T02:36:09;98984.04;;;5.36;75.95
68380;BME280;57711;53.196;19.638;2024-01-25T02:38:36;98984.72;;;5.36;76.01
68380;BME280;57711;53.196;19.638;2024-01-25T02:41:03;98991.52;;;5.37;75.98
68380;BME280;57711;53.196;19.638;2024-01-25T02:43:32;98982.36;;;5.35;76.05
68380;BME280;57711;53.196;19.638;2024-01-25T02:45:59;98987.88;;;5.33;76.04
68380;BME280;57711;53.196;19.638;2024-01-25T02:48:26;98991.06;;;5.31;76.03
68380;BME280;57711;53.196;19.638;2024-01-25T02:50:53;98990.10;;;5.30;76.10
68380;BME280;57711;53.196;19.638;2024-01-25T02:53:20;98991.65;;;5.29;75.93
68380;BME280;57711;53.196;19.638;2024-01-25T02:55:47;98995.77;;;5.29;75.87
68380;BME280;57711;53.196;19.638;2024-01-25T02:58:14;99001.35;;;5.28;75.94
68380;BME280;57711;53.196;19.638;2024-01-25T03:00:41;99006.77;;;5.28;75.94
68380;BME280;57711;53.196;19.638;2024-01-25T03:03:09;99000.67;;;5.26;75.93
68380;BME280;57711;53.196;19.638;2024-01-25T03:05:36;99005.48;;;5.26;76.04
68380;BME280;57711;53.196;19.638;2024-01-25T03:08:03;99011.77;;;5.26;76.04
68380;BME280;57711;53.196;19.638;2024-01-25T03:10:31;99014.14;;;5.28;76.03
68380;BME280;57711;53.196;19.638;2024-01-25T03:12:58;99014.92;;;5.27;76.05
68380;BME280;57711;53.196;19.638;2024-01-25T03:15:25;99015.33;;;5.26;75.93
68380;BME280;57711;53.196;19.638;2024-01-25T03:17:52;99025.60;;;5.26;75.98
68380;BME280;57711;53.196;19.638;2024-01-25T03:20:19;99029.13;;;5.24;75.97
68380;BME280;57711;53.196;19.638;2024-01-25T03:22:46;99031.60;;;5.23;75.92
68380;BME280;57711;53.196;19.638;2024-01-25T03:25:13;99033.20;;;5.23;75.97
68380;BME280;57711;53.196;19.638;2024-01-25T03:27:41;99038.01;;;5.23;75.79
68380;BME280;57711;53.196;19.638;2024-01-25T03:30:08;99040.39;;;5.22;75.89
68380;BME280;57711;53.196;19.638;2024-01-25T03:32:35;99035.84;;;5.21;75.93
68380;BME280;57711;53.196;19.638;2024-01-25T03:35:02;99037.59;;;5.20;75.99
68380;BME280;57711;53.196;19.638;2024-01-25T03:37:30;99038.36;;;5.19;75.99
68380;BME280;57711;53.196;19.638;2024-01-25T03:39:57;99032.38;;;5.18;75.82
68380;BME280;57711;53.196;19.638;2024-01-25T03:42:24;99032.81;;;5.17;75.86
68380;BME280;57711;53.196;19.638;2024-01-25T03:44:51;99035.13;;;5.15;75.82
68380;BME280;57711;53.196;19.638;2024-01-25T03:47:18;99038.67;;;5.11;75.99
68380;BME280;57711;53.196;19.638;2024-01-25T03:49:45;99039.42;;;5.09;76.02
68380;BME280;57711;53.196;19.638;2024-01-25T03:52:13;99036.70;;;5.07;76.03
68380;BME280;57711;53.196;19.638;2024-01-25T03:54:40;99042.14;;;5.05;75.82
68380;BME280;57711;53.196;19.638;2024-01-25T03:57:07;99044.41;;;5.03;75.87
68380;BME280;57711;53.196;19.638;2024-01-25T03:59:34;99045.36;;;5.02;75.96
68380;BME280;57711;53.196;19.638;2024-01-25T04:02:01;99046.41;;;5.01;75.97
68380;BME280;57711;53.196;19.638;2024-01-25T04:04:28;99044.55;;;5.00;75.96
68380;BME280;57711;53.196;19.638;2024-01-25T04:06:56;99046.63;;;4.98;76.01
68380;BME280;57711;53.196;19.638;2024-01-25T04:09:23;99049.66;;;4.96;75.97
68380;BME280;57711;53.196;19.638;2024-01-25T04:11:50;99045.77;;;4.93;76.00
68380;BME280;57711;53.196;19.638;2024-01-25T04:14:17;99046.34;;;4.91;76.05
68380;BME280;57711;53.196;19.638;2024-01-25T04:16:44;99047.73;;;4.89;76.01
68380;BME280;57711;53.196;19.638;2024-01-25T04:19:13;99053.79;;;4.87;76.05
68380;BME280;57711;53.196;19.638;2024-01-25T04:21:41;99051.95;;;4.86;76.08
68380;BME280;57711;53.196;19.638;2024-01-25T04:24:08;99048.29;;;4.85;75.98
68380;BME280;57711;53.196;19.638;2024-01-25T04:26:35;99049.08;;;4.84;76.00
68380;BME280;57711;53.196;19.638;2024-01-25T04:29:02;99052.77;;;4.83;76.04
68380;BME280;57711;53.196;19.638;2024-01-25T04:31:29;99055.60;;;4.81;76.08
68380;BME280;57711;53.196;19.638;2024-01-25T04:33:56;99058.80;;;4.77;76.01
68380;BME280;57711;53.196;19.638;2024-01-25T04:36:24;99062.83;;;4.74;76.05
68380;BME280;57711;53.196;19.638;2024-01-25T04:38:51;99064.39;;;4.72;75.94
68380;BME280;57711;53.196;19.638;2024-01-25T04:41:18;99064.66;;;4.71;75.95
68380;BME280;57711;53.196;19.638;2024-01-25T04:43:45;99063.38;;;4.69;76.03
68380;BME280;57711;53.196;19.638;2024-01-25T04:46:13;99057.91;;;4.66;76.13
68380;BME280;57711;53.196;19.638;2024-01-25T04:48:41;99058.33;;;4.66;75.98
68380;BME280;57711;53.196;19.638;2024-01-25T04:51:17;99062.48;;;4.65;76.06
68380;BME280;57711;53.196;19.638;2024-01-25T04:53:45;99064.42;;;4.65;76.11
68380;BME280;57711;53.196;19.638;2024-01-25T04:56:12;99062.86;;;4.65;76.02
68380;BME280;57711;53.196;19.638;2024-01-25T04:58:39;99062.89;;;4.65;76.03
68380;BME280;57711;53.196;19.638;2024-01-25T05:01:06;99066.20;;;4.64;75.98
68380;BME280;57711;53.196;19.638;2024-01-25T05:03:34;99062.06;;;4.64;76.02
68380;BME280;57711;53.196;19.638;2024-01-25T05:06:01;99063.84;;;4.64;76.12
68380;BME280;57711;53.196;19.638;2024-01-25T05:08:28;99064.88;;;4.65;76.03
68380;BME280;57711;53.196;19.638;2024-01-25T05:10:55;99067.58;;;4.64;75.95
68380;BME280;57711;53.196;19.638;2024-01-25T05:13:22;99064.14;;;4.62;76.15
68380;BME280;57711;53.196;19.638;2024-01-25T05:15:49;99068.83;;;4.62;76.25
68380;BME280;57711;53.196;19.638;2024-01-25T05:18:17;99073.27;;;4.63;76.12
68380;BME280;57711;53.196;19.638;2024-01-25T05:20:44;99072.96;;;4.62;76.12
68380;BME280;57711;53.196;19.638;2024-01-25T05:23:11;99076.45;;;4.61;76.12
68380;BME280;57711;53.196;19.638;2024-01-25T05:25:38;99080.48;;;4.60;76.19
68380;BME280;57711;53.196;19.638;2024-01-25T05:28:05;99079.22;;;4.58;76.28
68380;BME280;57711;53.196;19.638;2024-01-25T05:30:34;99082.58;;;4.58;76.03
68380;BME280;57711;53.196;19.638;2024-01-25T05:33:01;99083.51;;;4.58;76.12
68380;BME280;57711;53.196;19.638;2024-01-25T05:35:28;99081.96;;;4.57;76.22
68380;BME280;57711;53.196;19.638;2024-01-25T05:37:56;99081.24;;;4.55;76.18
68380;BME280;57711;53.196;19.638;2024-01-25T05:40:23;99078.99;;;4.54;76.23
68380;BME280;57711;53.196;19.638;2024-01-25T05:42:50;99079.52;;;4.54;76.19
68380;BME280;57711;53.196;19.638;2024-01-25T05:45:17;99077.00;;;4.54;76.25
68380;BME280;57711;53.196;19.638;2024-01-25T05:47:47;99079.52;;;4.54;76.19
68380;BME280;57711;53.196;19.638;2024-01-25T05:50:14;99083.42;;;4.52;76.15
68380;BME280;57711;53.196;19.638;2024-01-25T05:52:41;99085.07;;;4.50;76.27
68380;BME280;57711;53.196;19.638;2024-01-25T05:55:09;99088.98;;;4.50;76.21
68380;BME280;57711;53.196;19.638;2024-01-25T05:57:36;99093.49;;;4.49;76.28
68380;BME280;57711;53.196;19.638;2024-01-25T06:00:04;99094.93;;;4.50;76.24
68380;BME280;57711;53.196;19.638;2024-01-25T06:02:35;99094.46;;;4.51;76.26
68380;BME280;57711;53.196;19.638;2024-01-25T06:05:02;99097.14;;;4.51;76.19
68380;BME280;57711;53.196;19.638;2024-01-25T06:07:30;99102.52;;;4.50;76.28
68380;BME280;57711;53.196;19.638;2024-01-25T06:09:57;99106.55;;;4.50;76.24
68380;BME280;57711;53.196;19.638;2024-01-25T06:12:24;99108.43;;;4.48;76.28
68380;BME280;57711;53.196;19.638;2024-01-25T06:14:51;99110.72;;;4.49;76.25
68380;BME280;57711;53.196;19.638;2024-01-25T06:17:19;99117.37;;;4.49;76.28
68380;BME280;57711;53.196;19.638;2024-01-25T06:19:46;99121.33;;;4.50;76.20
68380;BME280;57711;53.196;19.638;2024-01-25T06:22:13;99123.95;;;4.51;76.16
68380;BME280;57711;53.196;19.638;2024-01-25T06:24:40;99130.29;;;4.53;76.41
68380;BME280;57711;53.196;19.638;2024-01-25T06:27:08;99134.64;;;4.54;76.33
68380;BME280;57711;53.196;19.638;2024-01-25T06:29:35;99135.16;;;4.54;76.19
68380;BME280;57711;53.196;19.638;2024-01-25T06:32:02;99142.42;;;4.55;76.33
68380;BME280;57711;53.196;19.638;2024-01-25T06:34:36;99148.65;;;4.56;76.27
68380;BME280;57711;53.196;19.638;2024-01-25T06:37:04;99148.21;;;4.57;76.36
68380;BME280;57711;53.196;19.638;2024-01-25T06:39:31;99152.81;;;4.60;76.35
68380;BME280;57711;53.196;19.638;2024-01-25T06:41:59;99155.38;;;4.61;76.32
68380;BME280;57711;53.196;19.638;2024-01-25T06:44:28;99156.40;;;4.62;76.24
68380;BME280;57711;53.196;19.638;2024-01-25T06:46:55;99161.98;;;4.63;76.35
68380;BME280;57711;53.196;19.638;2024-01-25T06:49:22;99165.92;;;4.64;76.31
68380;BME280;57711;53.196;19.638;2024-01-25T06:51:49;99173.61;;;4.64;76.37
68380;BME280;57711;53.196;19.638;2024-01-25T06:54:17;99174.90;;;4.63;76.37
68380;BME280;57711;53.196;19.638;2024-01-25T06:56:44;99179.36;;;4.64;76.22
68380;BME280;57711;53.196;19.638;2024-01-25T06:59:11;99186.05;;;4.65;76.38
68380;BME280;57711;53.196;19.638;2024-01-25T07:01:39;99190.66;;;4.66;76.39
68380;BME280;57711;53.196;19.638;2024-01-25T07:04:06;99192.48;;;4.67;76.37
68380;BME280;57711;53.196;19.638;2024-01-25T07:06:34;99193.58;;;4.69;76.38
68380;BME280;57711;53.196;19.638;2024-01-25T07:09:01;99196.91;;;4.70;76.43
68380;BME280;57711;53.196;19.638;2024-01-25T07:11:29;99197.69;;;4.71;76.51
68380;BME280;57711;53.196;19.638;2024-01-25T07:13:56;99199.98;;;4.72;76.36
68380;BME280;57711;53.196;19.638;2024-01-25T07:16:23;99202.07;;;4.72;76.38
68380;BME280;57711;53.196;19.638;2024-01-25T07:18:51;99203.45;;;4.73;76.49
68380;BME280;57711;53.196;19.638;2024-01-25T07:21:18;99206.15;;;4.75;76.42
68380;BME280;57711;53.196;19.638;2024-01-25T07:23:45;99204.80;;;4.76;76.27
68380;BME280;57711;53.196;19.638;2024-01-25T07:26:19;99212.46;;;4.79;76.40
68380;BME280;57711;53.196;19.638;2024-01-25T07:28:47;99214.45;;;4.81;76.39
68380;BME280;57711;53.196;19.638;2024-01-25T07:31:14;99221.21;;;4.84;76.42
68380;BME280;57711;53.196;19.638;2024-01-25T07:33:41;99216.99;;;4.85;76.36
68380;BME280;57711;53.196;19.638;2024-01-25T07:36:08;99223.50;;;4.84;76.32
68380;BME280;57711;53.196;19.638;2024-01-25T07:38:35;99227.47;;;4.84;76.29
68380;BME280;57711;53.196;19.638;2024-01-25T07:41:02;99227.59;;;4.84;76.27
68380;BME280;57711;53.196;19.638;2024-01-25T07:43:30;99232.69;;;4.85;76.32
68380;BME280;57711;53.196;19.638;2024-01-25T07:45:57;99233.77;;;4.85;76.37
68380;BME280;57711;53.196;19.638;2024-01-25T07:48:24;99234.29;;;4.86;76.50
68380;BME280;57711;53.196;19.638;2024-01-25T07:50:52;99237.56;;;4.83;76.37
68380;BME280;57711;53.196;19.638;2024-01-25T07:53:19;99237.98;;;4.82;76.41
68380;BME280;57711;53.196;19.638;2024-01-25T07:55:46;99242.36;;;4.81;76.39
68380;BME280;57711;53.196;19.638;2024-01-25T07:58:14;99244.12;;;4.82;76.42
68380;BME280;57711;53.196;19.638;2024-01-25T08:00:42;99245.69;;;4.82;76.48
68380;BME280;57711;53.196;19.638;2024-01-25T08:03:13;99243.78;;;4.82;76.47
68380;BME280;57711;53.196;19.638;2024-01-25T08:05:40;99244.05;;;4.80;76.44
68380;BME280;57711;53.196;19.638;2024-01-25T08:08:16;99245.97;;;4.81;76.41
68380;BME280;57711;53.196;19.638;2024-01-25T08:10:44;99244.42;;;4.82;76.44
68380;BME280;57711;53.196;19.638;2024-01-25T08:13:13;99252.49;;;4.82;76.37
68380;BME280;57711;53.196;19.638;2024-01-25T08:15:40;99259.34;;;4.82;76.41
68380;BME280;57711;53.196;19.638;2024-01-25T08:18:07;99267.46;;;4.81;76.50
68380;BME280;57711;53.196;19.638;2024-01-25T08:20:36;99267.10;;;4.83;76.59
68380;BME280;57711;53.196;19.638;2024-01-25T08:23:04;99275.59;;;4.84;76.54
68380;BME280;57711;53.196;19.638;2024-01-25T08:25:31;99277.39;;;4.87;76.44
68380;BME280;57711;53.196;19.638;2024-01-25T08:27:58;99282.05;;;4.89;76.51
68380;BME280;57711;53.196;19.638;2024-01-25T08:30:25;99285.68;;;4.90;76.49
68380;BME280;57711;53.196;19.638;2024-01-25T08:32:52;99291.06;;;4.90;76.41
68380;BME280;57711;53.196;19.638;2024-01-25T08:35:20;99288.62;;;4.89;76.57
68380;BME280;57711;53.196;19.638;2024-01-25T08:37:48;99291.04;;;4.90;76.47
68380;BME280;57711;53.196;19.638;2024-01-25T08:40:16;99294.27;;;4.92;76.53
68380;BME280;57711;53.196;19.638;2024-01-25T08:42:43;99294.61;;;4.93;76.65
68380;BME280;57711;53.196;19.638;2024-01-25T08:45:10;99301.14;;;4.95;76.45
68380;BME280;57711;53.196;19.638;2024-01-25T08:47:41;99305.07;;;4.94;76.54
68380;BME280;57711;53.196;19.638;2024-01-25T08:50:10;99305.53;;;4.95;76.57
68380;BME280;57711;53.196;19.638;2024-01-25T08:52:39;99315.67;;;4.99;76.61
68380;BME280;57711;53.196;19.638;2024-01-25T08:55:08;99318.45;;;4.99;76.54
68380;BME280;57711;53.196;19.638;2024-01-25T08:57:36;99327.00;;;5.00;76.68
68380;BME280;57711;53.196;19.638;2024-01-25T09:00:04;99329.86;;;4.98;76.52
68380;BME280;57711;53.196;19.638;2024-01-25T09:02:38;99337.85;;;4.99;76.64
68380;BME280;57711;53.196;19.638;2024-01-25T09:05:06;99340.46;;;5.00;76.63
68380;BME280;57711;53.196;19.638;2024-01-25T09:07:34;99344.86;;;5.01;76.52
68380;BME280;57711;53.196;19.638;2024-01-25T09:10:02;99346.66;;;5.03;76.58
68380;BME280;57711;53.196;19.638;2024-01-25T09:12:29;99353.24;;;5.03;76.55
68380;BME280;57711;53.196;19.638;2024-01-25T09:14:56;99359.70;;;5.05;76.69
68380;BME280;57711;53.196;19.638;2024-01-25T09:17:23;99368.01;;;5.07;76.72
68380;BME280;57711;53.196;19.638;2024-01-25T09:19:50;99375.42;;;5.08;76.69
68380;BME280;57711;53.196;19.638;2024-01-25T09:22:19;99382.15;;;5.09;76.60
68380;BME280;57711;53.196;19.638;2024-01-25T09:24:47;99385.78;;;5.09;76.61
68380;BME280;57711;53.196;19.638;2024-01-25T09:27:14;99388.77;;;5.09;76.69
68380;BME280;57711;53.196;19.638;2024-01-25T09:29:42;99397.42;;;5.11;76.81
68380;BME280;57711;53.196;19.638;2024-01-25T09:32:09;99400.20;;;5.13;76.81
68380;BME280;57711;53.196;19.638;2024-01-25T09:34:38;99409.46;;;5.13;76.76
68380;BME280;57711;53.196;19.638;2024-01-25T09:37:07;99415.82;;;5.14;76.77
68380;BME280;57711;53.196;19.638;2024-01-25T09:39:34;99416.97;;;5.13;76.63
68380;BME280;57711;53.196;19.638;2024-01-25T09:42:04;99421.65;;;5.15;76.77
68380;BME280;57711;53.196;19.638;2024-01-25T09:44:31;99432.19;;;5.18;76.71
68380;BME280;57711;53.196;19.638;2024-01-25T09:46:59;99433.19;;;5.19;76.60
68380;BME280;57711;53.196;19.638;2024-01-25T09:50:26;99434.54;;;5.20;76.70
68380;BME280;57711;53.196;19.638;2024-01-25T09:52:54;99444.88;;;5.18;76.67
68380;BME280;57711;53.196;19.638;2024-01-25T09:55:25;99451.23;;;5.17;76.55
68380;BME280;57711;53.196;19.638;2024-01-25T09:57:54;99462.77;;;5.16;76.59
68380;BME280;57711;53.196;19.638;2024-01-25T10:00:23;99489.69;;;5.16;76.64
68380;BME280;57711;53.196;19.638;2024-01-25T10:02:50;99500.71;;;5.15;76.64
68380;BME280;57711;53.196;19.638;2024-01-25T10:05:17;99508.28;;;5.14;76.43
68380;BME280;57711;53.196;19.638;2024-01-25T10:07:45;99507.17;;;5.10;76.34
68380;BME280;57711;53.196;19.638;2024-01-25T10:10:13;99514.88;;;5.08;76.26
68380;BME280;57711;53.196;19.638;2024-01-25T10:12:42;99517.07;;;5.05;76.39
68380;BME280;57711;53.196;19.638;2024-01-25T10:15:10;99527.30;;;5.02;76.29
68380;BME280;57711;53.196;19.638;2024-01-25T10:17:38;99534.61;;;5.01;76.25
68380;BME280;57711;53.196;19.638;2024-01-25T10:20:26;99538.54;;;4.98;76.23
68380;BME280;57711;53.196;19.638;2024-01-25T10:22:58;99544.17;;;4.95;76.24
68380;BME280;57711;53.196;19.638;2024-01-25T10:25:27;99550.50;;;4.94;76.20
68380;BME280;57711;53.196;19.638;2024-01-25T10:27:55;99548.27;;;4.93;76.29
68380;BME280;57711;53.196;19.638;2024-01-25T10:30:23;99556.34;;;4.88;76.13
68380;BME280;57711;53.196;19.638;2024-01-25T10:32:51;99562.67;;;4.82;75.85
68380;BME280;57711;53.196;19.638;2024-01-25T10:35:20;99569.63;;;4.78;76.14
68380;BME280;57711;53.196;19.638;2024-01-25T10:37:51;99575.14;;;4.77;76.20
68380;BME280;57711;53.196;19.638;2024-01-25T10:40:20;99579.30;;;4.76;76.14
68380;BME280;57711;53.196;19.638;2024-01-25T10:42:48;99594.91;;;4.73;76.14
68380;BME280;57711;53.196;19.638;2024-01-25T10:45:15;99599.05;;;4.68;75.95
68380;BME280;57711;53.196;19.638;2024-01-25T10:47:42;99599.48;;;4.62;76.11
68380;BME280;57711;53.196;19.638;2024-01-25T10:50:12;99610.75;;;4.55;76.01
68380;BME280;57711;53.196;19.638;2024-01-25T10:52:41;99614.28;;;4.53;76.04
68380;BME280;57711;53.196;19.638;2024-01-25T10:55:09;99619.69;;;4.50;75.96
68380;BME280;57711;53.196;19.638;2024-01-25T10:57:42;99624.50;;;4.46;76.01
68380;BME280;57711;53.196;19.638;2024-01-25T11:00:12;99628.46;;;4.43;76.07
68380;BME280;57711;53.196;19.638;2024-01-25T11:02:40;99631.27;;;4.39;76.07
68380;BME280;57711;53.196;19.638;2024-01-25T11:05:12;99638.45;;;4.37;75.92
68380;BME280;57711;53.196;19.638;2024-01-25T11:07:50;99639.80;;;4.35;76.07
68380;BME280;57711;53.196;19.638;2024-01-25T11:10:22;99643.80;;;4.34;75.93
68380;BME280;57711;53.196;19.638;2024-01-25T11:13:00;99649.80;;;4.33;75.98
68380;BME280;57711;53.196;19.638;2024-01-25T11:15:32;99650.66;;;4.33;76.10
68380;BME280;57711;53.196;19.638;2024-01-25T11:18:03;99656.51;;;4.32;75.88
68380;BME280;57711;53.196;19.638;2024-01-25T11:20:35;99663.86;;;4.32;76.04
68380;BME280;57711;53.196;19.638;2024-01-25T11:23:05;99668.42;;;4.33;75.96
68380;BME280;57711;53.196;19.638;2024-01-25T11:25:35;99672.48;;;4.36;76.04
68380;BME280;57711;53.196;19.638;2024-01-25T11:28:04;99671.38;;;4.39;76.08
68380;BME280;57711;53.196;19.638;2024-01-25T11:30:35;99676.45;;;4.41;75.97
68380;BME280;57711;53.196;19.638;2024-01-25T11:33:07;99678.86;;;4.42;76.13
68380;BME280;57711;53.196;19.638;2024-01-25T11:35:35;99682.23;;;4.44;76.16
68380;BME280;57711;53.196;19.638;2024-01-25T11:38:02;99684.83;;;4.46;76.01
68380;BME280;57711;53.196;19.638;2024-01-25T11:40:30;99688.11;;;4.45;75.84
68380;BME280;57711;53.196;19.638;2024-01-25T11:43:05;99691.34;;;4.45;75.94
68380;BME280;57711;53.196;19.638;2024-01-25T11:45:38;99701.59;;;4.47;76.05
68380;BME280;57711;53.196;19.638;2024-01-25T11:48:10;99701.73;;;4.47;75.91
68380;BME280;57711;53.196;19.638;2024-01-25T11:50:38;99708.58;;;4.47;75.82
68380;BME280;57711;53.196;19.638;2024-01-25T11:53:05;99714.70;;;4.46;75.79
68380;BME280;57711;53.196;19.638;2024-01-25T11:55:32;99710.99;;;4.45;75.82
68380;BME280;57711;53.196;19.638;2024-01-25T11:58:00;99714.38;;;4.46;75.82
68380;BME280;57711;53.196;19.638;2024-01-25T12:00:27;99714.86;;;4.47;75.85
68380;BME280;57711;53.196;19.638;2024-01-25T12:02:55;99715.52;;;4.45;75.81
68380;BME280;57711;53.196;19.638;2024-01-25T12:05:22;99719.67;;;4.42;75.67
68380;BME280;57711;53.196;19.638;2024-01-25T12:07:50;99726.85;;;4.39;75.63
68380;BME280;57711;53.196;19.638;2024-01-25T12:10:20;99729.77;;;4.41;75.76
68380;BME280;57711;53.196;19.638;2024-01-25T12:12:48;99736.52;;;4.44;75.88
68380;BME280;57711;53.196;19.638;2024-01-25T12:15:15;99743.08;;;4.45;75.75
68380;BME280;57711;53.196;19.638;2024-01-25T12:17:42;99744.97;;;4.46;75.77
68380;BME280;57711;53.196;19.638;2024-01-25T12:20:11;99756.95;;;4.46;75.66
68380;BME280;57711;53.196;19.638;2024-01-25T12:22:39;99759.52;;;4.45;75.52
68380;BME280;57711;53.196;19.638;2024-01-25T12:25:08;99764.59;;;4.42;75.64
68380;BME280;57711;53.196;19.638;2024-01-25T12:27:39;99767.65;;;4.42;75.67
68380;BME280;57711;53.196;19.638;2024-01-25T12:30:08;99767.94;;;4.40;75.61
68380;BME280;57711;53.196;19.638;2024-01-25T12:32:35;99772.73;;;4.36;75.52
68380;BME280;57711;53.196;19.638;2024-01-25T12:35:03;99776.20;;;4.32;75.44
68380;BME280;57711;53.196;19.638;2024-01-25T12:37:34;99776.02;;;4.30;75.53
68380;BME280;57711;53.196;19.638;2024-01-25T12:40:01;99776.52;;;4.28;75.50
68380;BME280;57711;53.196;19.638;2024-01-25T12:42:29;99782.10;;;4.25;75.42
68380;BME280;57711;53.196;19.638;2024-01-25T12:44:56;99783.21;;;4.25;75.41
68380;BME280;57711;53.196;19.638;2024-01-25T12:47:23;99792.15;;;4.22;75.38
68380;BME280;57711;53.196;19.638;2024-01-25T12:49:51;99792.59;;;4.23;75.41
68380;BME280;57711;53.196;19.638;2024-01-25T12:52:18;99796.09;;;4.25;75.54
68380;BME280;57711;53.196;19.638;2024-01-25T12:54:45;99804.88;;;4.24;75.40
68380;BME280;57711;53.196;19.638;2024-01-25T12:57:13;99810.86;;;4.23;75.25
68380;BME280;57711;53.196;19.638;2024-01-25T12:59:40;99813.61;;;4.22;75.22
68380;BME280;57711;53.196;19.638;2024-01-25T13:02:07;99817.52;;;4.23;75.34
68380;BME280;57711;53.196;19.638;2024-01-25T13:04:35;99820.88;;;4.23;75.32